Time;durP1;ratioP1;P1;durP2;ratioP2;P2;SDS_P1;SDS_P2;PMS_P1;PMS_P2;Temp;Humidity;BMP_temperature;BMP_pressure;BME280_temperature;BME280_humidity;BME280_pressure;Samples;Min_cycle;Max_cycle;Signal;HPM_P1;HPM_P2
2023/09/12 00:00:07;;;;;;;36.43;17.40;;;;;;;19.19;79.05;99925.00;4214650;28;20231;-67
2023/09/12 00:02:33;;;;;;;27.77;16.03;;;;;;;19.19;78.95;99925.84;4216330;28;21556;-67
2023/09/12 00:05:00;;;;;;;36.43;17.93;;;;;;;19.12;78.57;99919.56;4212243;28;21708;-67
2023/09/12 00:07:27;;;;;;;34.77;17.60;;;;;;;19.01;79.03;99915.59;4218041;28;20298;-65
2023/09/12 00:09:53;;;;;;;23.63;14.50;;;;;;;19.00;78.90;99917.47;4211636;28;20453;-68
2023/09/12 00:12:23;;;;;;;24.87;14.43;;;;;;;19.00;78.99;99916.63;4226214;28;20232;-68
2023/09/12 00:14:51;;;;;;;30.97;15.73;;;;;;;18.95;79.44;99919.19;4219709;28;20239;-65
2023/09/12 00:17:17;;;;;;;24.77;15.77;;;;;;;18.95;79.27;99909.06;4220338;28;20236;-65
2023/09/12 00:19:44;;;;;;;25.67;15.47;;;;;;;19.08;79.11;99910.06;4215277;28;20235;-67
2023/09/12 00:22:10;;;;;;;28.47;16.83;;;;;;;19.29;77.79;99912.53;4213406;28;20244;-66
2023/09/12 00:24:37;;;;;;;26.03;15.67;;;;;;;19.27;77.64;99917.38;4221600;28;20232;-67
2023/09/12 00:27:05;;;;;;;23.00;14.80;;;;;;;19.20;77.77;99912.97;4228339;28;22173;-68
2023/09/12 00:29:32;;;;;;;29.50;15.83;;;;;;;19.15;77.99;99908.13;4213479;28;20298;-66
2023/09/12 00:31:59;;;;;;;28.40;15.90;;;;;;;19.04;77.95;99917.88;4218707;28;22829;-66
2023/09/12 00:34:25;;;;;;;27.23;15.73;;;;;;;18.97;78.56;99917.06;4227683;28;20616;-66
2023/09/12 00:36:52;;;;;;;24.27;14.20;;;;;;;18.96;78.59;99924.47;4217728;28;20232;-67
2023/09/12 00:39:19;;;;;;;30.73;17.13;;;;;;;19.10;77.94;99917.03;4215731;28;26782;-68
2023/09/12 00:41:46;;;;;;;31.80;18.73;;;;;;;19.29;76.91;99907.03;4239706;28;20820;-66
2023/09/12 00:44:13;;;;;;;33.83;18.70;;;;;;;19.32;76.37;99909.31;4217626;28;20236;-67
2023/09/12 00:46:40;;;;;;;35.87;17.87;;;;;;;19.48;76.41;99909.88;4218360;28;20463;-67
2023/09/12 00:49:08;;;;;;;26.80;17.53;;;;;;;19.58;75.55;99907.53;4227334;28;20240;-66
2023/09/12 00:51:36;;;;;;;39.07;24.23;;;;;;;19.79;73.60;99909.06;4231786;28;20238;-68
2023/09/12 00:54:02;;;;;;;32.13;18.53;;;;;;;19.64;74.31;99917.63;4211417;28;20240;-66
2023/09/12 00:56:29;;;;;;;24.60;15.07;;;;;;;19.50;74.67;99915.16;4217942;28;20904;-68
2023/09/12 00:58:57;;;;;;;29.93;18.80;;;;;;;19.40;75.36;99910.13;4217283;28;21206;-67
2023/09/12 01:01:23;;;;;;;32.37;17.80;;;;;;;19.26;76.32;99901.97;4206602;28;21850;-66
2023/09/12 01:03:50;;;;;;;27.77;16.33;;;;;;;19.14;76.74;99899.06;4212585;28;20239;-67
2023/09/12 01:06:21;;;;;;;29.23;16.67;;;;;;;19.11;76.78;99904.97;4219255;28;20250;-68
2023/09/12 01:08:48;;;;;;;23.40;15.73;;;;;;;19.11;77.10;99909.63;4223100;28;20232;-67
2023/09/12 01:11:17;;;;;;;29.30;17.77;;;;;;;19.00;78.12;99906.50;4208985;28;20244;-67
2023/09/12 01:13:43;;;;;;;33.63;17.90;;;;;;;18.98;77.62;99897.66;4216564;28;22595;-69
2023/09/12 01:16:10;;;;;;;28.10;17.47;;;;;;;18.91;77.83;99904.19;4226924;28;20588;-67
2023/09/12 01:18:37;;;;;;;22.03;15.73;;;;;;;18.93;77.60;99904.84;4224982;28;21136;-66
2023/09/12 01:21:18;;;;;;;31.40;16.67;;;;;;;18.78;77.93;99914.13;4234355;28;20231;-66
2023/09/12 01:24:08;;;;;;;24.97;15.87;;;;;;;18.75;78.24;99905.50;4220695;28;20309;-66
2023/09/12 01:26:52;;;;;;;24.73;15.60;;;;;;;18.61;78.97;99904.66;4219842;28;20233;-67
2023/09/12 01:29:22;;;;;;;24.33;14.33;;;;;;;18.72;79.05;99908.66;4208775;28;20270;-68
2023/09/12 01:31:52;;;;;;;25.00;15.67;;;;;;;18.47;79.47;99912.91;4225202;28;20232;-66
2023/09/12 01:34:19;;;;;;;25.57;16.10;;;;;;;18.41;79.47;99908.28;4212299;28;20312;-66
2023/09/12 01:36:46;;;;;;;27.63;16.17;;;;;;;18.30;79.80;99911.66;4228053;28;20247;-67
2023/09/12 01:39:13;;;;;;;28.13;16.40;;;;;;;18.27;79.86;99915.66;4227460;28;22964;-66
2023/09/12 01:41:43;;;;;;;27.97;15.60;;;;;;;18.19;80.12;99924.94;4211658;28;20236;-67
2023/09/12 01:44:11;;;;;;;22.87;15.93;;;;;;;18.18;80.28;99914.19;4224991;28;20236;-68
2023/09/12 01:46:39;;;;;;;28.93;16.17;;;;;;;18.03;80.91;99914.41;4222194;28;22828;-68
2023/09/12 01:49:08;;;;;;;28.57;15.63;;;;;;;17.95;81.53;99920.03;4217657;28;20432;-67
2023/09/12 01:51:34;;;;;;;27.87;16.30;;;;;;;18.04;81.13;99922.41;4214664;28;21063;-67
2023/09/12 01:54:03;;;;;;;25.30;16.07;;;;;;;18.03;80.77;99915.22;4215838;28;21629;-66
2023/09/12 01:56:31;;;;;;;28.73;18.10;;;;;;;18.11;80.49;99916.06;4221264;28;21321;-67
2023/09/12 01:58:58;;;;;;;28.47;16.63;;;;;;;18.11;80.69;99919.69;4219027;28;20235;-68
2023/09/12 02:01:27;;;;;;;26.27;16.60;;;;;;;18.01;80.87;99911.84;4219120;28;20231;-67
2023/09/12 02:03:53;;;;;;;21.57;15.07;;;;;;;17.94;81.55;99919.19;4245788;28;20231;-67
2023/09/12 02:06:21;;;;;;;25.87;17.13;;;;;;;17.91;81.55;99908.66;4213838;28;20308;-67
2023/09/12 02:08:47;;;;;;;29.07;17.23;;;;;;;17.81;82.58;99919.16;4216579;28;20510;-66
2023/09/12 02:11:14;;;;;;;29.47;17.80;;;;;;;17.69;83.23;99905.25;4218108;28;20285;-67
2023/09/12 02:13:41;;;;;;;38.37;20.90;;;;;;;17.67;83.08;99908.19;4217749;28;20238;-67
2023/09/12 02:16:08;;;;;;;31.87;19.07;;;;;;;17.61;83.29;99909.03;4212576;28;20295;-66
2023/09/12 02:18:35;;;;;;;28.37;18.90;;;;;;;17.61;82.96;99913.66;4229555;28;22885;-66
2023/09/12 02:21:02;;;;;;;29.27;18.67;;;;;;;17.64;83.16;99911.34;4226081;28;20977;-66
2023/09/12 02:23:28;;;;;;;27.60;17.97;;;;;;;17.66;83.04;99908.41;4215506;28;20232;-67
2023/09/12 02:25:56;;;;;;;26.03;17.57;;;;;;;17.61;83.46;99909.03;4215571;28;20275;-67
2023/09/12 02:28:22;;;;;;;33.67;20.10;;;;;;;17.73;83.46;99915.56;4227367;28;20604;-66
2023/09/12 02:30:49;;;;;;;28.67;18.70;;;;;;;17.63;83.69;99912.41;4216494;28;20393;-66
2023/09/12 02:33:15;;;;;;;35.13;21.27;;;;;;;17.82;83.15;99915.38;4215722;28;20767;-66
2023/09/12 02:35:42;;;;;;;31.63;20.63;;;;;;;18.13;81.45;99916.72;4217553;28;20599;-67
2023/09/12 02:38:09;;;;;;;34.80;19.93;;;;;;;18.14;81.09;99910.19;4220333;28;25603;-67
2023/09/12 02:40:35;;;;;;;26.27;18.73;;;;;;;18.15;81.01;99912.72;4224628;28;20239;-67
2023/09/12 02:43:02;;;;;;;31.43;19.77;;;;;;;17.90;81.82;99917.94;4241512;28;20236;-66
2023/09/12 02:45:29;;;;;;;30.53;19.40;;;;;;;17.75;82.75;99907.16;4224818;28;20239;-66
2023/09/12 02:47:55;;;;;;;32.87;18.67;;;;;;;17.71;82.48;99912.19;4224309;28;20343;-67
2023/09/12 02:50:22;;;;;;;28.63;18.20;;;;;;;17.68;82.88;99907.16;4207667;28;20569;-67
2023/09/12 02:52:49;;;;;;;30.83;18.70;;;;;;;17.58;83.32;99912.16;4212800;28;23769;-66
2023/09/12 02:55:16;;;;;;;27.70;18.23;;;;;;;17.57;83.47;99905.00;4222065;28;20621;-68
2023/09/12 02:57:42;;;;;;;30.63;19.60;;;;;;;17.76;83.35;99908.84;4226486;28;20239;-68
2023/09/12 03:00:11;;;;;;;35.03;21.07;;;;;;;17.89;82.78;99917.09;4217819;28;21345;-67
2023/09/12 03:02:37;;;;;;;27.00;18.83;;;;;;;17.73;82.70;99907.38;4218220;28;21893;-68
2023/09/12 03:05:05;;;;;;;29.97;18.60;;;;;;;17.78;82.98;99912.22;4225404;28;20638;-67
2023/09/12 03:07:31;;;;;;;38.43;22.00;;;;;;;17.64;82.88;99905.03;4234302;28;20607;-67
2023/09/12 03:09:58;;;;;;;33.57;20.03;;;;;;;17.50;83.54;99898.69;4206613;28;20228;-67
2023/09/12 03:12:25;;;;;;;36.97;21.30;;;;;;;17.09;84.99;99903.16;4224628;28;20593;-67
2023/09/12 03:14:51;;;;;;;39.53;22.50;;;;;;;16.97;87.11;99900.16;4224843;28;20776;-68
2023/09/12 03:17:18;;;;;;;31.73;20.67;;;;;;;17.16;85.87;99904.03;4218455;28;20243;-66
2023/09/12 03:19:44;;;;;;;31.73;21.03;;;;;;;17.32;85.00;99902.84;4223926;28;20240;-66
2023/09/12 03:22:11;;;;;;;34.40;20.13;;;;;;;17.34;85.11;99906.19;4229139;28;20243;-65
2023/09/12 03:24:37;;;;;;;34.63;20.07;;;;;;;17.45;84.89;99907.50;4221168;28;20236;-68
2023/09/12 03:27:04;;;;;;;35.10;20.00;;;;;;;17.58;84.69;99910.28;4225771;28;20422;-66
2023/09/12 03:29:31;;;;;;;36.60;19.33;;;;;;;17.49;84.79;99900.59;4213620;28;20236;-67
2023/09/12 03:31:57;;;;;;;33.73;19.20;;;;;;;17.49;85.07;99911.53;4210872;28;20239;-66
2023/09/12 03:34:24;;;;;;;37.27;20.93;;;;;;;17.47;85.42;99916.34;4213069;28;20255;-68
2023/09/12 03:36:51;;;;;;;31.77;19.77;;;;;;;17.46;85.62;99914.66;4214896;28;21129;-67
2023/09/12 03:39:17;;;;;;;25.40;17.87;;;;;;;17.43;85.03;99917.81;4208748;28;20279;-69
2023/09/12 03:41:44;;;;;;;32.07;19.17;;;;;;;17.43;85.03;99921.41;4229183;28;20658;-67
2023/09/12 03:44:10;;;;;;;30.57;18.13;;;;;;;17.43;84.98;99915.09;4218270;28;21199;-67
2023/09/12 03:46:37;;;;;;;38.53;20.67;;;;;;;17.49;85.29;99916.13;4215482;28;20236;-67
2023/09/12 03:49:04;;;;;;;31.90;19.60;;;;;;;17.37;85.46;99924.13;4215993;28;20228;-67
2023/09/12 03:51:30;;;;;;;33.70;19.87;;;;;;;17.37;85.22;99918.66;4219381;28;20232;-67
2023/09/12 03:53:57;;;;;;;29.13;19.43;;;;;;;17.27;85.95;99928.09;4217602;28;20683;-67
2023/09/12 03:56:24;;;;;;;33.10;19.20;;;;;;;17.35;85.45;99927.03;4241213;28;20239;-66
2023/09/12 03:58:50;;;;;;;28.63;18.87;;;;;;;17.35;85.45;99924.31;4227563;28;20288;-66
2023/09/12 04:01:17;;;;;;;30.70;18.87;;;;;;;17.28;85.83;99928.91;4216962;28;20240;-66
2023/09/12 04:03:47;;;;;;;28.77;18.47;;;;;;;17.30;85.57;99932.28;4207698;28;20330;-67
2023/09/12 04:06:14;;;;;;;34.43;20.03;;;;;;;17.19;85.72;99924.66;4226380;28;20287;-67
2023/09/12 04:08:41;;;;;;;37.23;19.67;;;;;;;17.16;86.17;99925.91;4224760;28;20239;-66
2023/09/12 04:11:10;;;;;;;29.33;18.10;;;;;;;17.16;86.16;99927.81;4221372;28;21480;-66
2023/09/12 04:13:37;;;;;;;41.07;19.30;;;;;;;17.15;86.55;99923.38;4224988;28;20298;-67
2023/09/12 04:16:04;;;;;;;39.47;21.17;;;;;;;17.17;86.43;99922.13;4237355;28;23630;-67
2023/09/12 04:18:30;;;;;;;40.13;23.40;;;;;;;16.93;87.84;99927.06;4227702;28;21271;-67
2023/09/12 04:20:57;;;;;;;38.07;20.97;;;;;;;16.97;87.72;99930.22;4245931;28;25526;-66
2023/09/12 04:23:25;;;;;;;35.40;21.00;;;;;;;16.94;88.13;99916.97;4247363;28;21323;-67
2023/09/12 04:25:52;;;;;;;32.50;19.90;;;;;;;17.00;87.80;99924.38;4235841;28;22346;-66
2023/09/12 04:28:18;;;;;;;42.73;23.20;;;;;;;17.14;87.71;99930.75;4235170;28;20304;-66
2023/09/12 04:30:46;;;;;;;37.03;20.20;;;;;;;17.24;87.09;99928.47;4248988;28;21099;-68
2023/09/12 04:33:13;;;;;;;32.43;19.43;;;;;;;17.22;87.18;99932.47;4244402;28;20411;-66
2023/09/12 04:35:39;;;;;;;31.30;20.63;;;;;;;17.34;86.96;99932.72;4228763;28;20224;-66
2023/09/12 04:38:06;;;;;;;33.67;20.70;;;;;;;17.37;86.63;99932.34;4251404;28;20234;-65
2023/09/12 04:40:33;;;;;;;35.50;20.37;;;;;;;17.40;86.51;99923.69;4253705;28;23427;-67
2023/09/12 04:43:00;;;;;;;34.37;20.97;;;;;;;17.42;86.40;99927.91;4226092;28;20775;-65
2023/09/12 04:45:26;;;;;;;28.87;19.10;;;;;;;17.50;86.49;99939.72;4235558;28;20239;-66
2023/09/12 04:47:53;;;;;;;31.17;19.80;;;;;;;17.63;86.24;99939.78;4228716;28;20322;-67
2023/09/12 04:50:23;;;;;;;47.43;23.53;;;;;;;17.56;85.79;99931.53;4248863;28;25649;-66
2023/09/12 04:52:49;;;;;;;35.57;22.00;;;;;;;17.56;85.68;99937.03;4217263;28;20240;-67
2023/09/12 04:55:16;;;;;;;38.63;21.70;;;;;;;17.60;85.69;99942.09;4215285;28;20235;-71
2023/09/12 04:57:42;;;;;;;48.43;22.83;;;;;;;17.64;85.26;99933.25;4221993;28;21152;-70
2023/09/12 05:00:10;;;;;;;36.57;21.13;;;;;;;17.59;85.81;99938.50;4218504;28;20249;-71
2023/09/12 05:02:37;;;;;;;40.23;22.27;;;;;;;17.68;85.35;99933.66;4210302;28;20235;-70
2023/09/12 05:05:04;;;;;;;37.10;21.70;;;;;;;17.78;85.24;99934.13;4240496;28;20352;-70
2023/09/12 05:07:31;;;;;;;40.77;23.27;;;;;;;17.87;85.22;99932.88;4231625;28;20646;-70
2023/09/12 05:09:58;;;;;;;47.33;23.60;;;;;;;17.92;84.83;99932.25;4219914;28;21382;-70
2023/09/12 05:12:24;;;;;;;41.93;22.80;;;;;;;18.08;84.25;99942.00;4221567;28;21148;-71
2023/09/12 05:14:51;;;;;;;39.20;22.57;;;;;;;18.14;83.93;99935.69;4221180;28;20239;-71
2023/09/12 05:17:18;;;;;;;35.90;21.03;;;;;;;18.28;83.94;99944.75;4228587;28;20637;-70
2023/09/12 05:19:44;;;;;;;37.27;22.30;;;;;;;18.48;83.33;99950.25;4218431;28;20297;-73
2023/09/12 05:22:11;;;;;;;32.93;20.87;;;;;;;18.63;82.82;99950.00;4232283;28;20235;-68
2023/09/12 05:24:38;;;;;;;40.57;20.90;;;;;;;18.82;81.69;99944.72;4240926;28;20622;-72
2023/09/12 05:27:05;;;;;;;41.53;22.37;;;;;;;18.93;80.76;99944.06;4214750;28;25547;-71
2023/09/12 05:29:32;;;;;;;33.83;19.73;;;;;;;19.06;80.95;99951.44;4226467;28;20428;-69
2023/09/12 05:31:58;;;;;;;30.67;20.73;;;;;;;19.14;80.26;99948.44;4217462;28;20443;-71
2023/09/12 05:34:25;;;;;;;39.23;22.97;;;;;;;19.28;79.47;99946.50;4228817;28;20906;-72
2023/09/12 05:36:52;;;;;;;37.43;20.97;;;;;;;19.44;78.89;99947.91;4217889;28;20233;-69
2023/09/12 05:39:19;;;;;;;34.77;19.73;;;;;;;19.52;78.52;99949.59;4211801;28;20227;-71
2023/09/12 05:41:46;;;;;;;31.47;19.27;;;;;;;19.63;78.55;99957.13;4213119;28;21214;-69
2023/09/12 05:44:17;;;;;;;32.03;19.33;;;;;;;19.71;78.23;99953.28;4221013;28;20245;-73
2023/09/12 05:46:47;;;;;;;40.40;20.57;;;;;;;19.81;77.67;99955.56;4223492;28;21363;-72
2023/09/12 05:49:15;;;;;;;34.50;19.77;;;;;;;19.87;77.15;99945.59;4227372;28;20240;-69
2023/09/12 05:51:42;;;;;;;41.57;23.23;;;;;;;19.87;77.53;99942.84;4221021;28;20232;-73
2023/09/12 05:54:09;;;;;;;43.77;23.10;;;;;;;19.90;77.83;99951.50;4223951;28;26234;-71
2023/09/12 05:56:36;;;;;;;38.40;21.77;;;;;;;20.08;76.47;99948.00;4226457;28;21642;-68
2023/09/12 05:59:03;;;;;;;35.00;20.60;;;;;;;20.17;76.40;99943.06;4230640;28;21461;-68
2023/09/12 06:01:29;;;;;;;54.27;23.03;;;;;;;20.27;76.16;99953.56;4237408;28;20230;-69
2023/09/12 06:03:56;;;;;;;32.10;19.87;;;;;;;20.55;75.36;99958.63;4244212;28;21084;-70
2023/09/12 06:06:23;;;;;;;42.10;20.60;;;;;;;20.67;74.51;99964.22;4221576;28;20314;-67
2023/09/12 06:08:50;;;;;;;37.50;22.10;;;;;;;20.87;73.34;99958.56;4260553;28;20462;-67
2023/09/12 06:11:17;;;;;;;35.63;20.73;;;;;;;21.05;72.58;99949.50;4250778;28;21154;-72
2023/09/12 06:13:43;;;;;;;34.67;19.60;;;;;;;21.24;71.77;99960.47;4228987;28;20444;-72
2023/09/12 06:16:10;;;;;;;44.23;22.33;;;;;;;21.33;70.67;99963.78;4233644;28;20266;-69
2023/09/12 06:18:37;;;;;;;39.63;21.40;;;;;;;21.32;70.61;99957.44;4223297;28;20524;-70
2023/09/12 06:21:08;;;;;;;40.57;22.53;;;;;;;21.56;70.19;99959.47;4230944;28;20469;-69
2023/09/12 06:23:35;;;;;;;31.03;18.30;;;;;;;21.97;69.29;99963.38;4234764;28;21831;-70
2023/09/12 06:26:01;;;;;;;39.80;21.47;;;;;;;22.28;67.49;99978.78;4259569;28;20307;-69
2023/09/12 06:28:32;;;;;;;45.00;20.90;;;;;;;22.34;67.22;99973.44;4246726;28;20230;-70
2023/09/12 06:30:58;;;;;;;38.07;19.57;;;;;;;22.57;65.08;99964.38;4224416;28;20498;-67
2023/09/12 06:33:26;;;;;;;30.27;16.83;;;;;;;22.92;64.17;99967.13;4222715;28;20242;-70
2023/09/12 06:35:53;;;;;;;38.87;19.23;;;;;;;23.03;63.41;99964.63;4239233;28;21804;-68
2023/09/12 06:38:22;;;;;;;31.37;17.43;;;;;;;23.32;61.57;99959.19;4225896;28;20244;-68
2023/09/12 06:40:49;;;;;;;33.13;17.80;;;;;;;23.49;61.92;99971.13;4225538;28;20307;-68
2023/09/12 06:43:16;;;;;;;37.90;20.27;;;;;;;23.40;61.90;99958.81;4221121;28;21699;-68
2023/09/12 06:45:43;;;;;;;33.90;17.23;;;;;;;23.86;61.38;99961.66;4238926;28;23478;-74
2023/09/12 06:48:10;;;;;;;37.57;16.87;;;;;;;24.13;59.39;99970.19;4239966;28;20324;-69
2023/09/12 06:50:40;;;;;;;37.83;15.83;;;;;;;24.12;58.25;99973.22;4219925;28;22479;-69
2023/09/12 06:53:07;;;;;;;31.13;14.80;;;;;;;24.28;58.44;99968.78;4224793;28;20609;-69
2023/09/12 06:55:34;;;;;;;36.33;15.13;;;;;;;24.43;58.31;99971.00;4247852;28;21454;-70
2023/09/12 06:58:01;;;;;;;29.77;15.30;;;;;;;24.91;56.24;99972.31;4263326;28;20309;-69
2023/09/12 07:00:27;;;;;;;39.37;17.30;;;;;;;24.74;56.37;99972.34;4231597;28;20236;-68
2023/09/12 07:02:54;;;;;;;40.60;16.00;;;;;;;25.00;56.20;99973.56;4253118;28;20265;-68
2023/09/12 07:05:21;;;;;;;32.38;15.70;;;;;;;25.86;53.52;99967.72;4236597;28;20275;-66
2023/09/12 07:07:48;;;;;;;35.17;14.07;;;;;;;26.01;52.95;99964.28;4235293;28;20860;-69
2023/09/12 07:10:14;;;;;;;36.90;15.10;;;;;;;26.28;51.43;99977.31;4253149;28;20232;-68
2023/09/12 07:12:50;;;;;;;44.73;15.17;;;;;;;26.57;50.60;99984.22;4270075;28;21426;-71
2023/09/12 07:15:17;;;;;;;41.85;15.77;;;;;;;26.69;51.68;99977.66;4248226;28;20334;-68
2023/09/12 07:17:44;;;;;;;39.92;13.82;;;;;;;29.04;45.70;99975.00;4273628;28;21234;-69
2023/09/12 07:20:11;;;;;;;28.83;12.25;;;;;;;31.59;40.00;99975.66;4252864;28;22836;-68
2023/09/12 07:22:39;;;;;;;35.17;12.57;;;;;;;32.98;36.24;99970.75;4243773;28;20240;-69
2023/09/12 07:25:09;;;;;;;33.97;12.50;;;;;;;32.96;36.22;99969.38;4257270;28;20245;-68
2023/09/12 07:27:36;;;;;;;35.72;13.93;;;;;;;34.53;33.59;99977.78;4222618;28;20236;-68
2023/09/12 07:30:04;;;;;;;29.67;12.23;;;;;;;35.58;32.11;99983.13;4221298;28;20317;-71
2023/09/12 07:32:31;;;;;;;47.35;14.27;;;;;;;35.77;31.85;99985.63;4232550;28;23794;-66
2023/09/12 07:34:57;;;;;;;35.67;14.10;;;;;;;35.88;31.81;99981.34;4259349;28;20230;-70
2023/09/12 07:37:24;;;;;;;35.92;14.07;;;;;;;35.39;31.77;99987.03;4324831;28;20326;-69
2023/09/12 07:39:51;;;;;;;39.67;14.48;;;;;;;35.34;32.41;99982.34;4259859;28;20247;-70
2023/09/12 07:42:22;;;;;;;35.90;12.48;;;;;;;36.06;31.02;99987.03;4304815;28;20234;-70
2023/09/12 07:44:49;;;;;;;16.52;9.95;;;;;;;38.29;28.47;99983.50;4327685;28;20292;-70
2023/09/12 07:47:17;;;;;;;21.30;10.50;;;;;;;39.46;26.37;99982.41;4239640;28;20518;-71
2023/09/12 07:49:44;;;;;;;24.55;11.50;;;;;;;38.58;27.53;99978.91;4270116;28;20231;-70
2023/09/12 07:52:10;;;;;;;21.60;11.02;;;;;;;36.87;28.54;99978.94;4276513;28;23549;-70
2023/09/12 07:54:37;;;;;;;18.65;8.90;;;;;;;37.53;27.93;99989.84;4268956;28;20523;-69
2023/09/12 07:57:04;;;;;;;25.95;10.50;;;;;;;38.82;25.91;99984.69;4292709;28;21761;-67
2023/09/12 07:59:31;;;;;;;18.40;8.88;;;;;;;39.46;25.01;99990.06;4270287;28;20284;-70
2023/09/12 08:01:58;;;;;;;19.35;8.85;;;;;;;39.51;25.24;99986.16;4267546;28;21668;-67
2023/09/12 08:04:25;;;;;;;18.08;9.52;;;;;;;40.53;24.26;99990.88;4268829;28;20242;-66
2023/09/12 08:06:52;;;;;;;24.75;9.93;;;;;;;37.93;26.96;99979.31;4275104;28;20234;-65
2023/09/12 08:09:48;;;;;;;19.38;9.80;;;;;;;36.92;28.77;99979.63;4263954;28;21878;-68
2023/09/12 08:12:15;;;;;;;24.77;9.98;;;;;;;37.67;27.72;99983.97;4239337;28;21190;-70
2023/09/12 08:14:42;;;;;;;26.70;10.10;;;;;;;37.20;27.97;99970.72;4229860;28;20293;-67
2023/09/12 08:17:09;;;;;;;19.85;8.82;;;;;;;37.40;28.08;99974.00;4263088;28;20241;-67
2023/09/12 08:21:27;;;;;;;32.97;10.70;;;;;;;35.38;30.59;99977.75;4290557;28;22150;-67
2023/09/12 08:23:54;;;;;;;31.13;10.82;;;;;;;34.21;32.71;99977.69;4261356;28;20307;-69
2023/09/12 08:26:21;;;;;;;20.27;9.20;;;;;;;34.32;31.97;99980.25;4261714;28;21140;-71
2023/09/12 08:28:48;;;;;;;19.25;9.60;;;;;;;33.28;33.58;99982.50;4269977;28;21730;-70
2023/09/12 08:31:14;;;;;;;24.42;9.45;;;;;;;32.09;36.33;99986.47;4258435;28;20226;-69
2023/09/12 08:33:41;;;;;;;25.05;10.25;;;;;;;32.24;35.74;99985.44;4266206;28;20315;-67
2023/09/12 08:36:08;;;;;;;27.80;10.27;;;;;;;31.45;38.21;99984.81;4250832;28;20222;-66
2023/09/12 08:38:35;;;;;;;28.35;11.10;;;;;;;31.57;38.09;99986.34;4277273;28;20309;-69
2023/09/12 08:41:02;;;;;;;27.07;10.23;;;;;;;31.13;38.08;99985.47;4259551;28;20249;-68
2023/09/12 08:43:28;;;;;;;19.58;9.73;;;;;;;31.61;37.81;99987.41;4251908;28;20284;-68
2023/09/12 08:45:55;;;;;;;23.25;9.63;;;;;;;32.01;36.50;99979.59;4259867;28;20230;-67
2023/09/12 08:48:24;;;;;;;24.10;10.07;;;;;;;31.68;37.77;99989.88;4249880;28;20370;-69
2023/09/12 08:50:52;;;;;;;23.73;10.27;;;;;;;31.54;37.80;99984.13;4251671;28;20349;-67
2023/09/12 08:53:22;;;;;;;26.00;10.50;;;;;;;31.00;38.71;99986.97;4263760;28;20674;-67
2023/09/12 08:55:49;;;;;;;22.85;8.65;;;;;;;31.68;37.28;99987.91;4240153;28;21705;-69
2023/09/12 08:58:17;;;;;;;20.17;9.63;;;;;;;31.73;37.06;99985.03;4254012;28;20601;-69
2023/09/12 09:00:44;;;;;;;16.02;8.23;;;;;;;32.04;36.27;99978.97;4249451;28;20994;-70
2023/09/12 09:03:11;;;;;;;19.05;9.18;;;;;;;31.62;37.88;99986.28;4253093;28;21675;-67
2023/09/12 09:05:42;;;;;;;20.48;9.88;;;;;;;30.81;40.10;99978.50;4251074;28;21120;-69
2023/09/12 09:08:09;;;;;;;21.20;9.98;;;;;;;31.91;38.26;99979.75;4238845;28;21855;-70
2023/09/12 09:10:36;;;;;;;22.67;9.20;;;;;;;31.27;38.69;99975.22;4261663;28;22502;-68
2023/09/12 09:13:16;;;;;;;18.25;8.57;;;;;;;31.38;38.99;99980.72;4255082;28;21159;-68
2023/09/12 09:15:43;;;;;;;18.03;8.97;;;;;;;31.37;38.17;99981.84;4253611;28;23225;-68
2023/09/12 09:18:11;;;;;;;17.45;8.88;;;;;;;31.64;37.03;99983.16;4246500;28;20463;-68
2023/09/12 09:20:40;;;;;;;15.23;8.18;;;;;;;31.38;36.36;99970.34;4250356;28;20326;-68
2023/09/12 09:23:10;;;;;;;15.48;9.15;;;;;;;31.63;34.80;99982.34;4246895;28;20469;-68
2023/09/12 09:25:42;;;;;;;16.42;8.10;;;;;;;31.33;36.34;99967.63;4252594;28;20282;-68
2023/09/12 09:28:19;;;;;;;11.70;8.35;;;;;;;30.81;36.43;99970.09;4264835;28;20347;-67
2023/09/12 09:30:48;;;;;;;15.85;9.07;;;;;;;30.73;36.78;99966.00;4245069;28;20470;-68
2023/09/12 09:33:15;;;;;;;14.57;8.63;;;;;;;30.66;37.58;99971.94;4237723;28;20764;-70
2023/09/12 09:35:45;;;;;;;14.23;8.90;;;;;;;30.17;39.08;99968.13;4257206;28;20308;-67
2023/09/12 09:38:16;;;;;;;22.35;8.98;;;;;;;30.06;39.48;99968.47;4244931;28;21869;-68
2023/09/12 09:40:44;;;;;;;16.92;8.85;;;;;;;29.58;41.60;99964.25;4249608;28;20234;-67
2023/09/12 09:43:11;;;;;;;10.70;8.07;;;;;;;30.30;38.59;99958.25;4244200;28;20710;-67
2023/09/12 09:45:45;;;;;;;17.00;9.38;;;;;;;30.35;38.70;99962.97;4260480;28;20565;-68
2023/09/12 09:48:26;;;;;;;18.83;8.07;;;;;;;29.54;39.71;99965.94;4244510;28;21105;-69
2023/09/12 09:51:00;;;;;;;17.02;8.23;;;;;;;30.03;38.01;99962.34;4246122;28;21860;-69
2023/09/12 09:53:28;;;;;;;17.00;8.85;;;;;;;30.28;37.68;99960.50;4231047;28;21085;-68
2023/09/12 09:56:12;;;;;;;20.10;9.15;;;;;;;29.81;38.19;99959.09;4251591;28;20226;-69
2023/09/12 09:58:52;;;;;;;13.50;8.07;;;;;;;30.29;36.66;99958.56;4244482;28;20253;-68
2023/09/12 10:01:30;;;;;;;14.13;8.32;;;;;;;30.55;35.67;99956.41;4234071;28;20333;-69
2023/09/12 10:04:00;;;;;;;20.58;8.93;;;;;;;30.44;36.45;99958.41;4246019;28;20680;-67
2023/09/12 10:06:28;;;;;;;21.42;8.50;;;;;;;30.75;35.41;99958.16;4273887;28;20249;-67
2023/09/12 10:08:55;;;;;;;20.48;9.57;;;;;;;30.33;36.90;99954.84;4228439;28;20445;-71
2023/09/12 10:11:24;;;;;;;21.10;8.65;;;;;;;30.30;35.94;99954.59;4260104;28;20227;-69
2023/09/12 10:13:55;;;;;;;11.98;7.90;;;;;;;30.66;34.37;99946.78;4236810;28;21875;-67
2023/09/12 10:16:30;;;;;;;12.52;8.55;;;;;;;30.84;34.74;99952.75;4231219;28;20420;-68
2023/09/12 10:19:06;;;;;;;11.20;7.82;;;;;;;30.33;35.75;99945.66;4241989;28;20256;-69
2023/09/12 10:21:34;;;;;;;15.95;7.78;;;;;;;30.55;35.17;99947.19;4234160;28;25240;-67
2023/09/12 10:24:03;;;;;;;15.27;8.03;;;;;;;30.52;34.64;99951.38;4245351;28;22218;-67
2023/09/12 10:26:34;;;;;;;15.90;8.38;;;;;;;30.76;31.87;99950.63;4221366;28;20285;-70
2023/09/12 10:29:02;;;;;;;15.10;8.35;;;;;;;31.01;30.99;99949.50;4234308;28;20420;-69
2023/09/12 10:31:30;;;;;;;13.48;8.02;;;;;;;30.94;31.58;99949.03;4245816;28;20402;-67
2023/09/12 10:33:59;;;;;;;17.60;8.25;;;;;;;31.09;31.43;99957.28;4232948;28;20766;-69
2023/09/12 10:36:26;;;;;;;15.27;8.27;;;;;;;30.77;33.09;99955.91;4238483;28;22976;-70
2023/09/12 10:38:54;;;;;;;13.35;7.65;;;;;;;30.74;33.03;99950.06;4232061;28;22936;-69
2023/09/12 10:41:24;;;;;;;13.25;8.02;;;;;;;30.28;33.56;99949.31;4238319;28;20288;-68
2023/09/12 10:43:53;;;;;;;12.45;8.23;;;;;;;30.17;33.72;99937.41;4245024;28;22314;-70
2023/09/12 10:46:21;;;;;;;13.15;8.27;;;;;;;29.99;33.37;99936.16;4238750;28;20470;-69
2023/09/12 10:48:48;;;;;;;13.75;7.90;;;;;;;29.84;33.86;99936.22;4225924;28;20606;-70
2023/09/12 10:51:17;;;;;;;14.13;8.20;;;;;;;30.19;33.48;99934.31;4236319;28;20241;-71
2023/09/12 10:53:50;;;;;;;13.65;8.05;;;;;;;30.22;33.49;99936.53;4253179;28;20258;-70
2023/09/12 10:56:19;;;;;;;13.55;8.13;;;;;;;30.41;32.72;99933.88;4231721;28;20347;-70
2023/09/12 10:59:03;;;;;;;15.00;7.97;;;;;;;29.92;34.09;99929.22;4230430;28;20238;-74
2023/09/12 11:01:32;;;;;;;15.48;8.55;;;;;;;30.17;34.50;99936.59;4247430;28;20259;-68
2023/09/12 11:04:04;;;;;;;13.75;8.00;;;;;;;30.49;34.03;99933.22;4231522;28;20501;-70
2023/09/12 11:06:31;;;;;;;15.25;9.00;;;;;;;29.60;36.64;99922.97;4232774;28;20301;-68
2023/09/12 11:09:23;;;;;;;18.13;8.93;;;;;;;29.86;36.11;99926.44;4238784;28;20236;-69
2023/09/12 11:12:02;;;;;;;17.05;8.43;;;;;;;30.30;35.14;99929.47;4241462;28;20703;-69
2023/09/12 11:14:29;;;;;;;13.20;9.03;;;;;;;30.51;34.11;99925.41;4238169;28;20587;-69
2023/09/12 11:17:08;;;;;;;15.60;8.87;;;;;;;30.77;33.42;99925.16;4241339;28;20242;-68
2023/09/12 11:19:53;;;;;;;18.55;8.85;;;;;;;30.71;35.52;99920.75;4238575;28;21090;-73
2023/09/12 11:22:26;;;;;;;13.98;8.75;;;;;;;31.06;33.85;99923.47;4240558;28;20326;-69
2023/09/12 11:24:55;;;;;;;17.75;8.75;;;;;;;30.41;34.12;99922.69;4243543;28;21167;-70